Time;durP1;ratioP1;P1;durP2;ratioP2;P2;SDS_P1;SDS_P2;PMS_P1;PMS_P2;Temp;Humidity;BMP_temperature;BMP_pressure;BME280_temperature;BME280_humidity;BME280_pressure;Samples;Min_cycle;Max_cycle;Signal;HPM_P1;HPM_P2
2021/12/15 00:01:07;;;;;;;71.07;26.13;;;;;;;5.68;100.00;100326.72;5044776;28;20092;-65
2021/12/15 00:03:33;;;;;;;71.53;26.58;;;;;;;5.74;100.00;100339.94;5039056;28;20076;-65
2021/12/15 00:05:59;;;;;;;79.53;26.88;;;;;;;5.74;100.00;100324.28;5034036;28;20071;-65
2021/12/15 00:08:24;;;;;;;78.35;28.50;;;;;;;5.72;100.00;100325.94;5044565;28;20309;-65
2021/12/15 00:10:50;;;;;;;78.50;27.65;;;;;;;5.66;100.00;100325.81;5030976;28;20034;-65
2021/12/15 00:13:18;;;;;;;84.88;29.45;;;;;;;5.64;100.00;100322.28;5025558;28;20081;-65
2021/12/15 00:15:46;;;;;;;74.72;27.58;;;;;;;5.58;100.00;100327.31;5027412;28;20025;-65
2021/12/15 00:18:13;;;;;;;71.88;26.30;;;;;;;5.71;100.00;100329.41;5025105;28;20045;-65
2021/12/15 00:20:39;;;;;;;80.30;28.25;;;;;;;5.66;100.00;100328.44;5025259;28;20343;-65
2021/12/15 00:23:05;;;;;;;77.80;26.33;;;;;;;5.67;100.00;100322.34;5044261;28;20021;-65
2021/12/15 00:25:34;;;;;;;73.38;26.40;;;;;;;5.69;100.00;100318.94;5043009;28;20025;-65
2021/12/15 00:28:00;;;;;;;73.32;25.80;;;;;;;5.61;100.00;100319.56;5034475;28;20025;-65
2021/12/15 00:30:25;;;;;;;80.00;28.90;;;;;;;5.61;100.00;100322.19;5025057;28;20048;-65
2021/12/15 00:32:52;;;;;;;68.97;26.00;;;;;;;5.54;100.00;100317.66;5025798;28;20068;-65
2021/12/15 00:35:17;;;;;;;67.10;25.80;;;;;;;5.58;100.00;100323.00;5043129;28;20041;-65
2021/12/15 00:37:43;;;;;;;66.15;24.05;;;;;;;5.65;100.00;100317.09;5044191;28;20124;-65
2021/12/15 00:40:11;;;;;;;75.25;26.33;;;;;;;5.60;100.00;100320.44;5034009;28;20037;-65
2021/12/15 00:42:37;;;;;;;73.45;27.15;;;;;;;5.55;100.00;100320.31;5023867;28;20029;-65
2021/12/15 00:45:04;;;;;;;67.80;25.40;;;;;;;5.65;100.00;100318.81;5024535;28;20212;-65
2021/12/15 00:47:29;;;;;;;67.72;25.30;;;;;;;5.64;100.00;100317.03;5026739;28;20025;-65
2021/12/15 00:49:55;;;;;;;69.25;25.90;;;;;;;5.70;100.00;100317.22;5028605;28;20288;-65
2021/12/15 00:52:20;;;;;;;69.78;26.20;;;;;;;5.67;100.00;100317.13;5029568;28;20022;-65
2021/12/15 00:54:45;;;;;;;62.58;24.92;;;;;;;5.60;100.00;100315.19;5028355;28;20026;-65
2021/12/15 00:57:11;;;;;;;72.18;25.58;;;;;;;5.55;100.00;100316.78;5028313;28;20321;-65
2021/12/15 00:59:36;;;;;;;68.18;24.77;;;;;;;5.57;100.00;100309.91;5029279;28;20021;-65
2021/12/15 01:02:03;;;;;;;65.28;25.67;;;;;;;5.58;100.00;100316.88;5028678;28;20018;-65
2021/12/15 01:04:30;;;;;;;71.10;27.77;;;;;;;5.66;100.00;100315.38;5034827;28;20017;-65
2021/12/15 01:06:58;;;;;;;73.80;26.60;;;;;;;5.57;100.00;100315.13;5043289;28;20025;-65
2021/12/15 01:09:33;;;;;;;71.03;27.05;;;;;;;5.53;100.00;100308.00;5037469;28;20018;-65
2021/12/15 01:19:47;;;;;;;69.22;27.05;;;;;;;5.71;100.00;100313.75;5045711;28;20317;-65
2021/12/15 01:20:16;;;;;;;67.40;26.50;;;;;;;5.53;100.00;100318.47;5038301;28;20029;-65
2021/12/15 01:22:45;;;;;;;71.90;28.10;;;;;;;5.51;100.00;100305.38;5033925;28;20032;-65
2021/12/15 01:25:38;;;;;;;73.82;27.88;;;;;;;5.50;100.00;100310.53;5027555;28;20025;-65
2021/12/15 01:28:03;;;;;;;81.28;29.98;;;;;;;5.53;100.00;100313.25;5041443;28;20297;-65
2021/12/15 01:30:32;;;;;;;82.57;30.73;;;;;;;5.64;100.00;100306.59;5030705;28;20025;-65
2021/12/15 01:32:59;;;;;;;86.47;30.75;;;;;;;5.63;100.00;100310.91;5027542;28;20021;-65
2021/12/15 01:35:26;;;;;;;70.85;27.98;;;;;;;5.65;100.00;100324.03;5035523;28;20041;-65
2021/12/15 01:37:52;;;;;;;60.35;24.30;;;;;;;5.71;100.00;100318.97;5041169;28;20385;-65
2021/12/15 01:40:35;;;;;;;67.22;26.42;;;;;;;5.79;100.00;100327.91;5039244;28;20049;-65
2021/12/15 01:43:36;;;;;;;65.35;25.67;;;;;;;5.78;100.00;100327.00;5035852;28;20021;-65
2021/12/15 01:49:10;;;;;;;59.20;24.35;;;;;;;5.69;100.00;100331.09;5030145;28;20059;-65
2021/12/15 01:51:36;;;;;;;61.58;24.45;;;;;;;5.75;100.00;100331.25;5037873;28;20014;-65
2021/12/15 01:54:02;;;;;;;59.97;24.85;;;;;;;5.76;100.00;100330.44;5027063;28;20029;-65
2021/12/15 01:56:28;;;;;;;64.50;24.67;;;;;;;5.77;100.00;100334.81;5027037;28;20022;-65
2021/12/15 01:58:54;;;;;;;57.78;22.55;;;;;;;5.78;100.00;100336.56;5033910;28;20071;-65
2021/12/15 02:01:19;;;;;;;65.93;23.73;;;;;;;5.73;100.00;100327.75;5046118;28;20017;-65
2021/12/15 02:03:45;;;;;;;61.85;23.48;;;;;;;5.67;100.00;100330.19;5046113;28;20029;-65
2021/12/15 02:06:11;;;;;;;69.70;23.83;;;;;;;5.73;100.00;100328.59;5045917;28;20317;-65
2021/12/15 02:08:37;;;;;;;57.42;22.85;;;;;;;5.74;100.00;100334.72;5046548;28;20071;-65
2021/12/15 02:11:04;;;;;;;51.22;21.35;;;;;;;5.77;100.00;100332.19;5046624;28;20051;-65
2021/12/15 02:13:30;;;;;;;61.28;23.30;;;;;;;5.80;100.00;100340.13;5046833;28;20306;-65
2021/12/15 02:15:58;;;;;;;54.92;22.73;;;;;;;5.66;100.00;100331.03;5046407;28;20024;-65
2021/12/15 02:18:28;;;;;;;60.45;24.17;;;;;;;5.58;100.00;100332.53;5027199;28;20057;-65
2021/12/15 02:20:57;;;;;;;61.67;23.17;;;;;;;5.59;100.00;100329.97;5026493;28;20026;-65
2021/12/15 02:23:32;;;;;;;57.53;21.42;;;;;;;5.51;100.00;100325.41;5026539;28;20026;-65
2021/12/15 02:25:59;;;;;;;63.28;26.15;;;;;;;5.62;100.00;100324.84;5026911;28;20209;-65
2021/12/15 02:28:25;;;;;;;54.30;21.88;;;;;;;5.67;100.00;100327.56;5042427;28;20087;-65
2021/12/15 02:30:59;;;;;;;55.60;22.20;;;;;;;5.73;100.00;100327.75;5046046;28;20334;-65
2021/12/15 02:38:54;;;;;;;69.22;25.77;;;;;;;5.52;100.00;100317.59;5045571;28;20084;-65
2021/12/15 02:41:20;;;;;;;66.68;25.75;;;;;;;5.47;100.00;100323.56;5045307;28;20021;-65
2021/12/15 02:43:55;;;;;;;61.80;24.92;;;;;;;5.50;100.00;100323.59;5045630;28;20336;-65
2021/12/15 02:46:21;;;;;;;62.13;25.10;;;;;;;5.57;100.00;100325.56;5044065;28;20132;-65
2021/12/15 02:48:49;;;;;;;59.13;22.90;;;;;;;5.54;100.00;100330.72;5045699;28;20383;-65
2021/12/15 02:51:15;;;;;;;61.00;23.63;;;;;;;5.65;100.00;100326.63;5045852;28;20029;-65
2021/12/15 02:53:40;;;;;;;56.63;21.55;;;;;;;5.53;100.00;100318.47;5045757;28;20091;-65
2021/12/15 02:56:07;;;;;;;60.03;23.75;;;;;;;5.56;100.00;100323.78;5045244;28;20032;-65
2021/12/15 02:58:35;;;;;;;57.15;22.67;;;;;;;5.58;100.00;100323.00;5045349;28;20025;-65
2021/12/15 03:01:11;;;;;;;56.17;22.65;;;;;;;5.58;100.00;100329.94;5045373;28;20034;-65
2021/12/15 03:04:09;;;;;;;52.78;21.38;;;;;;;5.53;100.00;100323.69;5045094;28;20049;-65
2021/12/15 03:06:44;;;;;;;56.05;23.67;;;;;;;5.56;100.00;100319.44;5045136;28;20032;-65
2021/12/15 03:15:20;;;;;;;54.78;22.33;;;;;;;5.54;100.00;100315.03;5044712;28;20029;-65
2021/12/15 03:17:23;;;;;;;54.90;22.30;;;;;;;5.58;100.00;100311.66;5044568;28;20036;-65
2021/12/15 03:19:51;;;;;;;57.20;23.13;;;;;;;5.55;100.00;100304.63;5031716;28;20025;-65
2021/12/15 03:22:16;;;;;;;60.13;22.83;;;;;;;5.48;100.00;100304.41;5025586;28;20030;-65
2021/12/15 03:24:41;;;;;;;46.88;21.65;;;;;;;5.47;100.00;100313.09;5036615;28;20063;-65
2021/12/15 03:27:13;;;;;;;46.92;20.08;;;;;;;5.46;100.00;100313.91;5031077;28;20218;-65
2021/12/15 03:37:41;;;;;;;50.83;20.67;;;;;;;5.42;100.00;100305.13;5025891;28;20048;-65
2021/12/15 03:40:15;;;;;;;49.78;20.52;;;;;;;5.44;100.00;100308.66;5025300;28;20383;-65
2021/12/15 03:42:45;;;;;;;46.20;18.45;;;;;;;5.45;100.00;100304.34;5025284;28;20095;-65
2021/12/15 03:45:16;;;;;;;45.20;19.67;;;;;;;5.36;100.00;100315.41;5031298;28;20343;-65
2021/12/15 03:47:49;;;;;;;42.05;19.20;;;;;;;5.40;100.00;100312.03;5034764;28;20025;-65
2021/12/15 03:50:18;;;;;;;49.38;20.88;;;;;;;5.36;100.00;100312.81;5030599;28;20049;-65
2021/12/15 03:52:48;;;;;;;46.70;19.75;;;;;;;5.31;100.00;100308.31;5044876;28;20033;-65
2021/12/15 03:55:14;;;;;;;56.38;20.75;;;;;;;5.36;100.00;100320.63;5044900;28;20248;-65
2021/12/15 03:57:40;;;;;;;56.65;21.55;;;;;;;5.30;100.00;100322.19;5045079;28;20091;-65
2021/12/15 04:00:08;;;;;;;46.08;19.30;;;;;;;5.24;100.00;100324.59;5044271;28;20080;-65
2021/12/15 04:02:33;;;;;;;52.33;21.17;;;;;;;5.20;100.00;100317.53;5044828;28;20021;-65
2021/12/15 04:04:59;;;;;;;53.85;22.23;;;;;;;5.20;100.00;100322.75;5044058;28;20025;-65
2021/12/15 04:07:24;;;;;;;43.97;18.30;;;;;;;5.20;100.00;100322.75;5043922;28;20041;-65
2021/12/15 04:09:51;;;;;;;42.70;18.52;;;;;;;5.33;100.00;100319.66;5043907;28;20296;-65
2021/12/15 04:12:16;;;;;;;55.60;19.67;;;;;;;5.29;100.00;100323.03;5025218;28;20069;-65
2021/12/15 04:14:54;;;;;;;40.47;17.10;;;;;;;5.29;100.00;100317.81;5024867;28;20026;-65
2021/12/15 04:17:26;;;;;;;39.42;17.67;;;;;;;5.34;100.00;100316.19;5024469;28;20022;-65
2021/12/15 04:19:54;;;;;;;;;;;;;;;5.34;100.00;100321.41;5037285;28;20021;-65
2021/12/15 04:22:20;;;;;;;42.42;18.60;;;;;;;5.28;100.00;100318.66;5028219;28;19905;-65
2021/12/15 04:24:45;;;;;;;46.17;20.33;;;;;;;5.24;100.00;100324.59;5043669;28;20052;-65
2021/12/15 04:27:11;;;;;;;46.15;19.95;;;;;;;5.35;100.00;100323.19;5043719;28;20025;-65
2021/12/15 04:29:38;;;;;;;51.42;19.00;;;;;;;5.35;100.00;100325.81;5040841;28;20040;-65
2021/12/15 04:32:08;;;;;;;47.50;20.13;;;;;;;5.29;100.00;100329.16;5043482;28;20024;-65
2021/12/15 04:34:34;;;;;;;52.40;20.00;;;;;;;5.28;100.00;100321.28;5043715;28;20024;-65
2021/12/15 04:36:59;;;;;;;40.90;17.02;;;;;;;5.35;100.00;100323.19;5044251;28;20088;-65
2021/12/15 04:39:27;;;;;;;44.75;18.23;;;;;;;5.44;100.00;100328.69;5044303;28;20080;-65
2021/12/15 04:41:54;;;;;;;41.42;18.55;;;;;;;5.51;100.00;100341.06;5044384;28;20075;-65
2021/12/15 04:44:24;;;;;;;49.28;18.75;;;;;;;5.37;100.00;100337.16;5044264;28;20208;-65
2021/12/15 04:47:00;;;;;;;41.17;17.70;;;;;;;5.44;100.00;100344.34;5041602;28;20044;-65
2021/12/15 04:49:28;;;;;;;40.17;17.90;;;;;;;5.37;100.00;100342.38;5042171;28;20044;-65
2021/12/15 04:51:53;;;;;;;41.55;17.40;;;;;;;5.43;100.00;100339.94;5043377;28;20021;-65
2021/12/15 04:54:20;;;;;;;43.22;19.10;;;;;;;5.44;100.00;100339.13;5042209;28;20325;-65
2021/12/15 04:56:47;;;;;;;43.60;18.85;;;;;;;5.44;100.00;100339.13;5024062;28;20150;-65
2021/12/15 04:59:13;;;;;;;41.80;18.63;;;;;;;5.27;100.00;100342.97;5023117;28;20022;-65
2021/12/15 05:01:39;;;;;;;43.53;18.63;;;;;;;5.30;100.00;100340.44;5023109;28;20030;-65
2021/12/15 05:04:04;;;;;;;47.00;18.67;;;;;;;5.24;100.00;100337.66;5034380;28;20217;-65
2021/12/15 05:06:30;;;;;;;41.25;18.40;;;;;;;5.22;100.00;100334.13;5034017;28;20337;-65
2021/12/15 05:08:55;;;;;;;41.50;18.45;;;;;;;5.31;100.00;100337.03;5041766;28;20039;-65
2021/12/15 05:11:21;;;;;;;50.78;20.15;;;;;;;5.39;100.00;100340.72;5042235;28;20028;-65
2021/12/15 05:13:47;;;;;;;43.15;19.77;;;;;;;5.35;100.00;100344.94;5042026;28;20248;-65
2021/12/15 05:16:12;;;;;;;39.38;17.90;;;;;;;5.32;100.00;100338.78;5028941;28;20041;-65
2021/12/15 05:18:38;;;;;;;40.95;19.77;;;;;;;5.31;100.00;100344.84;5038989;28;20037;-65
2021/12/15 05:21:05;;;;;;;45.45;19.60;;;;;;;5.31;100.00;100343.09;5042132;28;20253;-65
2021/12/15 05:23:32;;;;;;;48.53;18.98;;;;;;;5.45;100.00;100348.72;5042468;28;20047;-66
2021/12/15 05:25:59;;;;;;;41.47;18.35;;;;;;;5.40;100.00;100352.91;5035777;28;20025;-65
2021/12/15 05:28:25;;;;;;;63.85;22.48;;;;;;;5.26;100.00;100349.03;5043618;28;20048;-65
2021/12/15 05:30:50;;;;;;;45.15;20.38;;;;;;;5.37;100.00;100352.81;5032479;28;20030;-65
2021/12/15 05:33:16;;;;;;;49.30;20.80;;;;;;;5.35;100.00;100354.53;5026090;28;20038;-65
2021/12/15 05:35:41;;;;;;;66.55;24.10;;;;;;;5.33;100.00;100345.75;5039347;28;20317;-65
2021/12/15 05:38:08;;;;;;;55.90;24.60;;;;;;;5.27;100.00;100356.03;5029389;28;20018;-66
2021/12/15 05:40:35;;;;;;;72.85;31.88;;;;;;;5.36;100.00;100356.28;5027448;28;20018;-66
2021/12/15 05:43:02;;;;;;;66.32;28.95;;;;;;;5.38;100.00;100359.84;5027141;28;20032;-66
2021/12/15 05:45:30;;;;;;;55.65;25.45;;;;;;;5.42;100.00;100362.59;5027055;28;20025;-66
2021/12/15 05:47:58;;;;;;;66.47;26.75;;;;;;;5.37;100.00;100358.94;5026951;28;20032;-66
2021/12/15 05:50:27;;;;;;;61.28;25.73;;;;;;;5.38;100.00;100362.47;5027065;28;20044;-66
2021/12/15 05:52:53;;;;;;;63.20;25.05;;;;;;;5.40;100.00;100359.03;5026948;28;20244;-66
2021/12/15 05:55:19;;;;;;;60.75;23.73;;;;;;;5.43;100.00;100356.50;5027211;28;20205;-66
2021/12/15 05:57:46;;;;;;;63.97;26.95;;;;;;;5.32;100.00;100349.22;5026872;28;20068;-65
2021/12/15 06:00:19;;;;;;;70.03;29.30;;;;;;;5.36;100.00;100359.81;5026661;28;20326;-65
2021/12/15 06:02:45;;;;;;;72.35;30.13;;;;;;;5.41;100.00;100360.78;5026803;28;20021;-65
2021/12/15 06:05:11;;;;;;;63.33;27.58;;;;;;;5.43;100.00;100373.91;5026670;28;20088;-65
2021/12/15 06:07:38;;;;;;;62.17;29.15;;;;;;;5.47;100.00;100370.56;5026674;28;20037;-65
2021/12/15 06:10:10;;;;;;;65.88;26.08;;;;;;;5.54;100.00;100372.50;5026613;28;20018;-65
2021/12/15 06:12:36;;;;;;;60.22;23.05;;;;;;;5.56;100.00;100365.56;5026665;28;20026;-65
2021/12/15 06:15:02;;;;;;;48.97;21.80;;;;;;;5.53;100.00;100370.69;5026562;28;20037;-65
2021/12/15 06:17:28;;;;;;;47.25;20.92;;;;;;;5.55;100.00;100366.41;5026546;28;20044;-65
2021/12/15 06:19:54;;;;;;;40.95;18.42;;;;;;;5.62;100.00;100371.84;5026379;28;20026;-65
2021/12/15 06:22:25;;;;;;;41.50;19.75;;;;;;;5.68;100.00;100382.47;5026408;28;20031;-65
2021/12/15 06:24:51;;;;;;;36.90;17.70;;;;;;;5.71;100.00;100384.28;5026645;28;20029;-65
2021/12/15 06:27:19;;;;;;;36.45;18.08;;;;;;;5.65;100.00;100382.38;5026291;28;20017;-65
2021/12/15 06:29:46;;;;;;;42.20;19.63;;;;;;;5.66;100.00;100378.06;5026305;28;20025;-65
2021/12/15 06:32:12;;;;;;;52.33;21.67;;;;;;;5.57;100.00;100372.56;5026460;28;20022;-65
2021/12/15 06:34:37;;;;;;;53.63;21.85;;;;;;;5.43;100.00;100379.13;5026440;28;20026;-65
2021/12/15 06:37:03;;;;;;;46.17;20.27;;;;;;;5.50;100.00;100381.06;5024411;28;20028;-65
2021/12/15 06:39:29;;;;;;;45.67;21.02;;;;;;;5.49;100.00;100379.28;5025989;28;20313;-65
2021/12/15 06:41:55;;;;;;;53.53;21.05;;;;;;;5.46;100.00;100385.31;5026065;28;20071;-65
2021/12/15 06:44:20;;;;;;;52.25;23.10;;;;;;;5.42;100.00;100393.03;5025438;28;20026;-65
2021/12/15 07:00:12;;;;;;;44.88;19.52;;;;;;;5.63;100.00;100415.41;5025713;28;20388;-65
2021/12/15 07:02:38;;;;;;;47.88;21.50;;;;;;;5.59;100.00;100423.13;5025604;28;20064;-65
2021/12/15 07:05:07;;;;;;;52.65;22.73;;;;;;;5.59;100.00;100420.50;5025523;28;20100;-65
2021/12/15 07:07:34;;;;;;;49.83;23.27;;;;;;;5.61;100.00;100426.66;5025567;28;20199;-65
2021/12/15 07:09:59;;;;;;;49.67;22.77;;;;;;;5.60;100.00;100424.91;5025498;28;20014;-65
2021/12/15 07:12:24;;;;;;;46.67;22.00;;;;;;;5.62;100.00;100425.81;5025445;28;20041;-65
2021/12/15 07:14:50;;;;;;;43.78;20.90;;;;;;;5.66;100.00;100435.53;5025426;28;20037;-65
2021/12/15 07:17:20;;;;;;;46.47;20.48;;;;;;;5.70;100.00;100437.38;5025195;28;20021;-65
2021/12/15 07:22:33;;;;;;;40.55;20.65;;;;;;;5.65;100.00;100450.31;5031889;28;20029;-65
2021/12/15 07:25:00;;;;;;;42.70;21.38;;;;;;;5.66;100.00;100445.97;5045340;28;20028;-65
2021/12/15 07:27:25;;;;;;;41.80;19.70;;;;;;;5.67;100.00;100437.28;5044909;28;20021;-65
2021/12/15 07:29:51;;;;;;;39.53;18.80;;;;;;;5.74;100.00;100449.69;5043329;28;20060;-65
2021/12/15 07:32:16;;;;;;;42.40;21.58;;;;;;;5.76;100.00;100442.78;5044226;28;20379;-65
2021/12/15 07:34:42;;;;;;;49.83;23.50;;;;;;;5.65;100.00;100449.41;5043922;28;20088;-65
2021/12/15 07:37:07;;;;;;;54.17;23.15;;;;;;;5.68;100.00;100444.28;5043909;28;20021;-65
2021/12/15 07:39:35;;;;;;;53.13;25.95;;;;;;;5.72;100.00;100448.75;5043759;28;20029;-65
2021/12/15 07:42:07;;;;;;;53.88;26.02;;;;;;;5.74;100.00;100449.69;5043358;28;20321;-65
2021/12/15 07:44:33;;;;;;;52.22;24.27;;;;;;;5.78;100.00;100452.44;5043787;28;20190;-65
2021/12/15 07:46:58;;;;;;;43.72;22.13;;;;;;;5.82;100.00;100456.06;5043658;28;20140;-65
2021/12/15 07:49:26;;;;;;;40.33;21.02;;;;;;;5.82;100.00;100463.91;5043666;28;20337;-65
2021/12/15 07:52:04;;;;;;;43.22;22.77;;;;;;;5.88;100.00;100464.03;5043599;28;20029;-65
2021/12/15 07:54:32;;;;;;;65.50;31.88;;;;;;;5.89;100.00;100465.84;5043423;28;20214;-65
2021/12/15 07:57:07;;;;;;;83.47;36.10;;;;;;;5.90;100.00;100470.22;5039314;28;20058;-65
2021/12/15 07:59:33;;;;;;;48.67;25.63;;;;;;;5.84;100.00;100467.41;5033739;28;20033;-65
2021/12/15 08:01:58;;;;;;;44.42;23.58;;;;;;;5.86;100.00;100473.59;5034939;28;20025;-65
2021/12/15 08:04:23;;;;;;;44.65;22.75;;;;;;;5.96;100.00;100473.00;5034694;28;20241;-65
2021/12/15 08:06:49;;;;;;;47.10;23.17;;;;;;;6.02;100.00;100475.78;5033726;28;20032;-65
2021/12/15 08:09:14;;;;;;;48.15;24.33;;;;;;;5.96;100.00;100476.50;5032811;28;20018;-65
2021/12/15 08:11:40;;;;;;;38.90;20.17;;;;;;;6.00;100.00;100480.06;5034069;28;20237;-65
2021/12/15 08:14:06;;;;;;;43.45;20.38;;;;;;;5.90;100.00;100478.06;5032850;28;20021;-65
2021/12/15 08:16:33;;;;;;;40.05;20.65;;;;;;;5.90;100.00;100478.94;5032323;28;20221;-65
2021/12/15 08:18:59;;;;;;;41.40;20.85;;;;;;;5.83;100.00;100483.94;5033729;28;20101;-65
2021/12/15 08:21:25;;;;;;;43.13;20.65;;;;;;;5.80;100.00;100481.22;5032235;28;20068;-65
2021/12/15 08:23:53;;;;;;;42.17;20.95;;;;;;;5.91;100.00;100487.66;5032487;28;20044;-65
2021/12/15 08:26:18;;;;;;;40.70;19.75;;;;;;;6.02;100.00;100489.72;5037301;28;20032;-65
2021/12/15 08:28:44;;;;;;;39.90;20.45;;;;;;;6.01;100.00;100487.09;5039249;28;20018;-66
2021/12/15 08:31:09;;;;;;;38.78;19.33;;;;;;;6.04;100.00;100484.53;5026273;28;20022;-66
2021/12/15 08:33:36;;;;;;;39.75;21.33;;;;;;;6.10;100.00;100497.78;5038504;28;20029;-65
2021/12/15 08:36:07;;;;;;;39.58;20.35;;;;;;;6.20;100.00;100505.03;5051665;28;20347;-65
2021/12/15 08:38:35;;;;;;;45.22;21.70;;;;;;;6.16;100.00;100500.56;5035038;28;20313;-65
2021/12/15 08:41:04;;;;;;;40.90;19.67;;;;;;;6.24;100.00;100491.22;5033668;28;20313;-65
2021/12/15 08:43:30;;;;;;;35.80;18.65;;;;;;;6.17;100.00;100494.53;5037071;28;20041;-65
2021/12/15 08:46:03;;;;;;;41.65;20.38;;;;;;;6.23;100.00;100499.88;5033262;28;20376;-65
2021/12/15 08:48:28;;;;;;;38.30;19.92;;;;;;;6.28;100.00;100495.69;5033928;28;20085;-65
2021/12/15 08:50:54;;;;;;;43.65;20.75;;;;;;;6.26;100.00;100499.97;5035116;28;20029;-65
2021/12/15 08:53:19;;;;;;;35.25;19.10;;;;;;;6.25;100.00;100504.34;5032294;28;20017;-65
2021/12/15 08:55:47;;;;;;;34.50;18.40;;;;;;;6.25;100.00;100509.56;5032158;28;20021;-65
2021/12/15 08:58:15;;;;;;;38.20;20.08;;;;;;;6.24;100.00;100501.69;5033396;28;20389;-65
2021/12/15 09:00:43;;;;;;;34.95;19.13;;;;;;;6.32;100.00;100495.81;5031782;28;20061;-65
2021/12/15 09:03:09;;;;;;;34.88;19.02;;;;;;;6.20;100.00;100505.03;5031806;28;20309;-65
2021/12/15 09:05:35;;;;;;;39.50;21.20;;;;;;;6.23;100.00;100499.88;5033495;28;20285;-65
2021/12/15 09:08:01;;;;;;;33.97;19.27;;;;;;;6.32;100.00;100513.22;5024260;28;20021;-65
2021/12/15 09:10:29;;;;;;;35.58;20.20;;;;;;;6.24;100.00;100510.41;5027124;28;20014;-65
2021/12/15 09:12:56;;;;;;;36.95;19.52;;;;;;;6.19;100.00;100508.50;5026383;28;20026;-65
2021/12/15 09:15:21;;;;;;;39.53;21.42;;;;;;;6.25;100.00;100503.44;5026756;28;20088;-65
2021/12/15 09:17:47;;;;;;;34.50;19.20;;;;;;;6.29;100.00;100506.19;5026561;28;20359;-65
2021/12/15 09:20:17;;;;;;;40.00;19.88;;;;;;;6.30;100.00;100494.00;5026634;28;20029;-65
2021/12/15 09:22:43;;;;;;;40.13;20.30;;;;;;;6.32;99.85;100494.91;5026654;28;20030;-65
2021/12/15 09:25:11;;;;;;;40.83;20.08;;;;;;;6.32;100.00;100510.59;5026612;28;20376;-65
2021/12/15 09:27:38;;;;;;;35.80;17.95;;;;;;;6.37;100.00;100503.78;5026118;28;20217;-65
2021/12/15 09:30:08;;;;;;;37.47;18.70;;;;;;;6.42;100.00;100512.63;5026479;28;20068;-65
2021/12/15 09:32:33;;;;;;;40.42;19.73;;;;;;;6.46;100.00;100509.28;5026661;28;20084;-65
2021/12/15 09:34:59;;;;;;;39.88;19.80;;;;;;;6.43;100.00;100503.94;5026371;28;20314;-65
2021/12/15 09:37:24;;;;;;;36.03;18.85;;;;;;;6.52;99.94;100498.97;5026363;28;20041;-65
2021/12/15 09:39:50;;;;;;;31.20;17.38;;;;;;;6.58;99.54;100496.47;5025823;28;20202;-65
2021/12/15 09:42:19;;;;;;;36.63;16.77;;;;;;;6.60;99.21;100494.81;5026245;28;20037;-66
2021/12/15 09:44:46;;;;;;;30.25;16.88;;;;;;;6.55;99.61;100501.63;5026462;28;20064;-66
2021/12/15 10:03:37;;;;;;;35.20;12.57;;;;;;;6.69;98.70;100500.28;5025851;28;20056;-66
2021/12/15 10:06:22;;;;;;;20.67;10.35;;;;;;;6.74;98.96;100511.72;5025456;28;20033;-66
2021/12/15 10:11:47;;;;;;;18.33;10.00;;;;;;;6.82;98.41;100504.97;5045594;28;20030;-65
2021/12/15 10:17:37;;;;;;;17.42;9.05;;;;;;;6.83;98.20;100498.88;5023215;28;20072;-65
2021/12/15 10:20:04;;;;;;;14.93;8.45;;;;;;;6.93;97.21;100498.25;5021332;28;20333;-66
2021/12/15 10:22:42;;;;;;;14.88;8.30;;;;;;;6.82;97.00;100494.50;5029879;28;20033;-65
2021/12/15 10:25:43;;;;;;;21.80;11.63;;;;;;;6.84;97.50;100497.16;5042443;28;20339;-65
2021/12/15 10:28:10;;;;;;;16.05;9.65;;;;;;;6.96;98.08;100495.72;5044813;28;20264;-65
2021/12/15 10:30:48;;;;;;;15.25;9.30;;;;;;;6.98;97.22;100501.88;5045157;28;20025;-65
2021/12/15 10:33:22;;;;;;;17.05;8.43;;;;;;;6.94;97.27;100492.19;5044770;28;20057;-65
2021/12/15 10:35:57;;;;;;;15.30;9.30;;;;;;;6.87;97.42;100497.25;5045088;28;20029;-65
2021/12/15 10:38:31;;;;;;;15.93;9.75;;;;;;;6.94;97.46;100479.09;5044990;28;20030;-65
2021/12/15 10:41:05;;;;;;;19.88;11.43;;;;;;;6.84;97.59;100471.88;5045324;28;20063;-65
2021/12/15 10:43:41;;;;;;;19.70;11.93;;;;;;;6.88;96.92;100478.97;5044948;28;20083;-65
2021/12/15 10:46:13;;;;;;;19.17;11.73;;;;;;;6.98;96.90;100480.03;5039934;28;20018;-65
2021/12/15 10:48:49;;;;;;;21.00;11.10;;;;;;;7.04;97.19;100475.84;5025013;28;20092;-65
2021/12/15 10:51:35;;;;;;;18.77;10.57;;;;;;;6.98;97.64;100470.47;5033223;28;20388;-65
2021/12/15 10:54:09;;;;;;;16.63;9.25;;;;;;;7.04;97.04;100474.97;5035532;28;20021;-65
2021/12/15 10:56:38;;;;;;;13.68;8.68;;;;;;;7.16;95.94;100470.91;5042373;28;20032;-65
2021/12/15 10:59:13;;;;;;;18.55;10.27;;;;;;;7.12;96.19;100463.81;5044428;28;20336;-66
2021/12/15 11:01:40;;;;;;;17.17;10.43;;;;;;;7.07;97.26;100467.19;5044646;28;20309;-66
2021/12/15 11:04:30;;;;;;;21.52;11.50;;;;;;;7.06;96.33;100466.31;5037662;28;20317;-66
2021/12/15 11:07:02;;;;;;;18.73;10.55;;;;;;;7.14;97.08;100471.72;5035583;28;20021;-66
2021/12/15 11:09:31;;;;;;;;;;;;;;;7.09;95.88;100465.50;5035671;28;20044;-66
2021/12/15 11:12:00;;;;;;;17.40;10.32;;;;;;;7.09;96.76;100468.97;5032083;28;19928;-66
2021/12/15 11:14:29;;;;;;;18.35;8.95;;;;;;;7.11;96.47;100462.06;5029624;28;20084;-66
2021/12/15 11:17:03;;;;;;;16.38;9.27;;;;;;;6.98;95.96;100460.00;5035088;28;20028;-66
2021/12/15 11:19:44;;;;;;;17.02;9.70;;;;;;;7.11;95.60;100456.81;5040251;28;20041;-66
2021/12/15 11:22:32;;;;;;;15.40;9.15;;;;;;;7.05;96.59;100456.66;5029687;28;20030;-66
2021/12/15 11:24:58;;;;;;;15.20;9.23;;;;;;;7.16;95.34;100460.44;5023937;28;20296;-66
2021/12/15 11:27:25;;;;;;;13.75;7.75;;;;;;;7.09;95.51;100448.03;5024276;28;20025;-66
2021/12/15 11:29:50;;;;;;;12.93;7.28;;;;;;;7.04;95.72;100454.91;5029546;28;20305;-66
2021/12/15 11:32:56;;;;;;;9.52;5.07;;;;;;;7.05;94.81;100451.44;5034442;28;20044;-66
2021/12/15 11:35:31;;;;;;;9.02;5.18;;;;;;;7.11;94.80;100450.69;5018881;28;20030;-65
2021/12/15 11:38:26;;;;;;;7.43;4.00;;;;;;;6.94;94.88;100447.69;5021475;28;20022;-65
2021/12/15 11:40:54;;;;;;;6.10;4.07;;;;;;;7.10;94.52;100447.22;5020521;28;20401;-65
2021/12/15 11:43:50;;;;;;;5.38;3.08;;;;;;;7.20;93.83;100454.41;5021749;28;20049;-65
2021/12/15 11:46:22;;;;;;;5.43;3.22;;;;;;;7.09;93.82;100450.66;4992365;28;20021;-65
2021/12/15 11:48:57;;;;;;;5.60;3.53;;;;;;;7.05;93.37;100440.97;5021757;28;20041;-65
2021/12/15 11:52:03;;;;;;;7.35;3.92;;;;;;;7.10;93.86;100444.59;5021194;28;20030;-65
2021/12/15 11:54:33;;;;;;;7.43;4.43;;;;;;;7.12;93.71;100448.09;5019922;28;20044;-65
2021/12/15 11:57:05;;;;;;;9.35;5.90;;;;;;;7.27;93.59;100448.47;5022581;28;20045;-65
2021/12/15 11:59:35;;;;;;;10.18;6.32;;;;;;;7.16;93.61;100449.06;5022837;28;20065;-65
2021/12/15 12:02:09;;;;;;;9.77;5.20;;;;;;;7.17;93.48;100436.00;5022921;28;20028;-65
2021/12/15 12:04:41;;;;;;;10.43;5.50;;;;;;;7.13;94.30;100431.56;5022955;28;20056;-65
2021/12/15 12:07:21;;;;;;;6.63;4.65;;;;;;;7.09;93.83;100437.56;5038986;28;20037;-65
2021/12/15 12:10:02;;;;;;;6.65;3.95;;;;;;;7.21;92.76;100426.50;5044344;28;20271;-65
2021/12/15 12:12:35;;;;;;;7.80;4.18;;;;;;;6.90;94.37;100422.31;5044288;28;20025;-65
2021/12/15 12:15:01;;;;;;;7.85;4.65;;;;;;;6.95;94.50;100427.63;5044504;28;20021;-65
2021/12/15 12:17:30;;;;;;;6.30;3.75;;;;;;;6.95;94.67;100422.38;5043984;28;20820;-65
2021/12/15 12:20:10;;;;;;;9.23;5.57;;;;;;;7.09;94.55;100427.09;5044143;28;20025;-65
2021/12/15 12:22:37;;;;;;;8.48;5.60;;;;;;;7.15;93.76;100427.22;5044140;28;20029;-65
2021/12/15 12:25:08;;;;;;;8.52;4.93;;;;;;;7.15;93.81;100429.84;5044046;28;20017;-65
2021/12/15 12:27:35;;;;;;;5.57;3.53;;;;;;;6.98;93.42;100422.44;5044071;28;20048;-65
2021/12/15 12:30:05;;;;;;;6.90;4.15;;;;;;;7.07;93.32;100418.34;5044275;28;20288;-65